createdAt,value
2023-01-15T00:00:47.906Z,3.01
2023-01-15T00:03:14.590Z,2.72
2023-01-15T00:05:41.235Z,2.96
2023-01-15T00:08:07.863Z,2.92
2023-01-15T00:10:35.278Z,2.83
2023-01-15T00:13:02.001Z,2.47
2023-01-15T00:15:28.654Z,2.57
2023-01-15T00:17:55.309Z,2.77
2023-01-15T00:20:22.239Z,2.97
2023-01-15T00:22:48.901Z,2.52
2023-01-15T00:25:16.825Z,2.64
2023-01-15T00:27:43.492Z,2.46
2023-01-15T00:30:11.639Z,2.62
2023-01-15T00:32:39.325Z,2.82
2023-01-15T00:35:06.487Z,2.85
2023-01-15T00:37:33.108Z,2.54
2023-01-15T00:39:59.963Z,2.86
2023-01-15T00:42:26.618Z,2.69
2023-01-15T00:44:54.512Z,2.80
2023-01-15T00:47:21.273Z,2.64
2023-01-15T00:49:47.980Z,2.62
2023-01-15T00:52:14.659Z,2.65
2023-01-15T00:54:41.622Z,2.51
2023-01-15T00:57:08.308Z,2.52
2023-01-15T00:59:34.928Z,2.90
2023-01-15T01:02:01.590Z,2.79
2023-01-15T01:04:28.301Z,2.62
2023-01-15T01:06:55.207Z,2.20
2023-01-15T01:09:21.884Z,2.37
2023-01-15T01:11:49.331Z,2.36
2023-01-15T01:14:16.145Z,2.26
2023-01-15T01:16:42.828Z,2.26
2023-01-15T01:19:21.050Z,2.50
2023-01-15T01:21:47.803Z,1.88
2023-01-15T01:24:19.155Z,2.03
2023-01-15T01:26:46.040Z,1.96
2023-01-15T01:29:13.520Z,1.81
2023-01-15T01:31:40.204Z,2.06
2023-01-15T01:34:07.126Z,1.92
2023-01-15T01:36:34.779Z,1.83
2023-01-15T01:39:01.529Z,1.67
2023-01-15T01:41:28.395Z,1.69
2023-01-15T01:44:00.845Z,1.76
2023-01-15T01:46:29.239Z,1.47
2023-01-15T01:49:06.667Z,1.63
2023-01-15T01:51:35.922Z,1.55
2023-01-15T01:54:02.520Z,1.62
2023-01-15T01:56:29.511Z,1.56
2023-01-15T01:58:56.151Z,1.60
2023-01-15T02:01:23.281Z,1.72
2023-01-15T02:03:49.934Z,1.65
2023-01-15T02:06:16.605Z,1.60
2023-01-15T02:08:43.206Z,1.47
2023-01-15T02:11:14.555Z,1.55
2023-01-15T02:13:43.608Z,1.66
2023-01-15T02:16:19.084Z,1.52
2023-01-15T02:19:10.573Z,1.50
2023-01-15T02:21:51.247Z,1.52
2023-01-15T02:24:22.821Z,1.70
2023-01-15T02:27:12.664Z,1.41
2023-01-15T02:29:43.700Z,1.41
2023-01-15T02:32:34.304Z,1.44
2023-01-15T02:35:05.194Z,1.41
2023-01-15T02:37:33.426Z,1.51
2023-01-15T02:40:00.233Z,1.57
2023-01-15T02:42:27.552Z,1.45
2023-01-15T02:44:54.544Z,1.33
2023-01-15T02:47:24.555Z,1.23
2023-01-15T02:49:51.789Z,1.30
2023-01-15T02:52:24.457Z,1.17
2023-01-15T02:54:54.935Z,1.36
2023-01-15T02:57:21.620Z,1.64
2023-01-15T02:59:48.476Z,1.36
2023-01-15T03:02:18.961Z,1.41
2023-01-15T03:05:07.594Z,1.30
2023-01-15T03:07:40.961Z,1.49
2023-01-15T03:10:07.881Z,1.19
2023-01-15T03:13:01.349Z,1.28
2023-01-15T03:15:31.846Z,1.30
2023-01-15T03:17:58.516Z,1.20
2023-01-15T03:20:26.143Z,1.31
2023-01-15T03:22:56.745Z,1.31
2023-01-15T03:25:25.301Z,1.45
2023-01-15T03:27:53.090Z,1.22
2023-01-15T03:30:20.525Z,1.29
2023-01-15T03:32:47.342Z,1.21
2023-01-15T03:35:42.321Z,1.32
2023-01-15T03:38:08.996Z,1.43
2023-01-15T03:40:36.668Z,1.25
2023-01-15T03:43:05.796Z,1.25
2023-01-15T03:45:33.192Z,1.26
2023-01-15T03:48:13.317Z,1.37
2023-01-15T03:50:48.098Z,1.18
2023-01-15T03:53:26.911Z,1.26
2023-01-15T03:56:00.048Z,1.61
2023-01-15T03:58:34.180Z,1.50
2023-01-15T04:01:01.991Z,1.35
2023-01-15T04:03:31.341Z,1.40
2023-01-15T04:05:59.325Z,1.19
2023-01-15T04:08:26.936Z,1.48
2023-01-15T04:10:57.127Z,1.23
2023-01-15T04:13:23.948Z,1.27
2023-01-15T04:15:50.883Z,1.36
2023-01-15T04:18:17.603Z,1.58
2023-01-15T04:20:44.577Z,1.37
2023-01-15T04:23:11.280Z,1.44
2023-01-15T04:25:37.975Z,1.50
2023-01-15T04:28:04.803Z,1.48
2023-01-15T04:30:31.401Z,1.55
2023-01-15T04:32:58.597Z,1.53
2023-01-15T04:35:25.261Z,1.58
2023-01-15T04:37:57.747Z,1.66
2023-01-15T04:40:27.261Z,1.47
2023-01-15T04:42:55.690Z,1.65
2023-01-15T04:45:22.479Z,1.36
2023-01-15T04:47:49.084Z,1.58
2023-01-15T04:50:15.950Z,1.63
2023-01-15T04:52:42.568Z,1.59
2023-01-15T04:55:09.360Z,1.70
2023-01-15T04:57:35.984Z,1.58
2023-01-15T05:00:02.812Z,1.46
2023-01-15T05:02:29.517Z,1.38
2023-01-15T05:04:56.245Z,1.54
2023-01-15T05:07:22.919Z,1.43
2023-01-15T05:09:49.568Z,1.31
2023-01-15T05:12:16.188Z,1.35
2023-01-15T05:14:42.849Z,1.38
2023-01-15T05:17:09.490Z,1.28
2023-01-15T05:19:36.109Z,1.26
2023-01-15T05:22:02.730Z,1.20
2023-01-15T05:24:29.323Z,1.15
2023-01-15T05:26:55.911Z,1.38
2023-01-15T05:29:22.560Z,1.51
2023-01-15T05:31:49.152Z,1.45
2023-01-15T05:34:15.868Z,1.21
2023-01-15T05:36:42.530Z,1.51
2023-01-15T05:39:09.190Z,1.25
2023-01-15T05:41:35.823Z,1.23
2023-01-15T05:44:09.932Z,1.22
2023-01-15T05:46:38.084Z,1.32
2023-01-15T05:49:06.289Z,1.24
2023-01-15T05:51:34.513Z,1.15
2023-01-15T05:54:01.334Z,1.12
2023-01-15T05:56:27.985Z,1.28
2023-01-15T05:58:54.650Z,1.20
2023-01-15T06:01:21.441Z,1.28
2023-01-15T06:03:48.210Z,1.40
2023-01-15T06:06:16.240Z,1.23
2023-01-15T06:08:42.872Z,1.36
2023-01-15T06:11:09.813Z,1.19
2023-01-15T06:13:36.565Z,1.29
2023-01-15T06:16:03.518Z,1.16
2023-01-15T06:18:30.167Z,1.47
2023-01-15T06:20:56.787Z,1.43
2023-01-15T06:23:23.442Z,1.36
2023-01-15T06:25:50.437Z,1.32
2023-01-15T06:28:17.074Z,1.59
2023-01-15T06:30:43.675Z,1.44
2023-01-15T06:33:10.280Z,1.56
2023-01-15T06:35:36.884Z,1.33
2023-01-15T06:38:03.496Z,1.39
2023-01-15T06:40:30.143Z,1.50
2023-01-15T06:42:59.631Z,1.68
2023-01-15T06:45:26.218Z,1.75
2023-01-15T06:47:52.852Z,1.70
2023-01-15T06:50:19.458Z,1.38
2023-01-15T06:52:46.060Z,1.59
2023-01-15T06:55:12.657Z,1.37
2023-01-15T06:57:39.743Z,1.39
2023-01-15T07:00:09.589Z,1.39
2023-01-15T07:02:36.256Z,1.46
2023-01-15T07:05:02.905Z,1.34
2023-01-15T07:07:29.570Z,1.63
2023-01-15T07:09:56.295Z,1.53
2023-01-15T07:12:22.919Z,1.62
2023-01-15T07:14:49.516Z,1.65
2023-01-15T07:17:16.117Z,1.92
2023-01-15T07:19:43.415Z,1.88
2023-01-15T07:22:10.299Z,1.79
2023-01-15T07:24:36.931Z,1.71
2023-01-15T07:27:03.747Z,1.86
2023-01-15T07:29:31.560Z,1.94
2023-01-15T07:31:58.322Z,1.63
2023-01-15T07:34:25.013Z,1.72
2023-01-15T07:36:51.656Z,1.95
2023-01-15T07:39:18.305Z,1.74
2023-01-15T07:41:44.893Z,2.01
2023-01-15T07:44:11.812Z,1.72
2023-01-15T07:46:38.594Z,1.84
2023-01-15T07:49:08.796Z,1.81
2023-01-15T07:51:35.460Z,1.69
2023-01-15T07:54:02.180Z,1.75
2023-01-15T07:56:28.807Z,1.84
2023-01-15T07:58:55.409Z,1.91
2023-01-15T08:01:22.071Z,1.94
2023-01-15T08:03:48.892Z,1.89
2023-01-15T08:06:15.536Z,1.96
2023-01-15T08:08:42.200Z,2.14
2023-01-15T08:11:08.953Z,1.92
2023-01-15T08:13:35.578Z,1.91
2023-01-15T08:16:02.285Z,1.92
2023-01-15T08:18:28.963Z,1.97
2023-01-15T08:20:55.596Z,2.17
2023-01-15T08:23:22.247Z,2.06
2023-01-15T08:25:48.916Z,2.55
2023-01-15T08:28:15.586Z,2.63
2023-01-15T08:30:42.168Z,2.23
2023-01-15T08:33:08.780Z,2.23
2023-01-15T08:35:35.421Z,2.03
2023-01-15T08:38:06.216Z,2.01
2023-01-15T08:40:33.040Z,2.15
2023-01-15T08:42:59.649Z,2.00
2023-01-15T08:45:26.337Z,2.03
2023-01-15T08:47:56.036Z,1.74
2023-01-15T08:50:22.770Z,1.57
2023-01-15T08:52:49.363Z,1.18
2023-01-15T08:55:16.072Z,0.98
2023-01-15T08:57:42.717Z,1.06
2023-01-15T09:00:10.249Z,0.83
2023-01-15T09:02:37.005Z,1.04
2023-01-15T09:05:03.782Z,0.72
2023-01-15T09:07:30.625Z,0.60
2023-01-15T09:09:57.247Z,0.60
2023-01-15T09:12:24.079Z,0.70
2023-01-15T09:14:56.765Z,0.54
2023-01-15T09:17:28.817Z,0.54
2023-01-15T09:19:55.437Z,0.38
2023-01-15T09:22:22.128Z,0.32
2023-01-15T09:24:48.898Z,0.33
2023-01-15T09:27:15.602Z,0.32
2023-01-15T09:29:42.312Z,0.23
2023-01-15T09:32:08.967Z,0.12
2023-01-15T09:34:35.599Z,0.15
2023-01-15T09:37:02.237Z,0.18
2023-01-15T09:39:28.893Z,0.19
2023-01-15T09:42:07.091Z,0.13
2023-01-15T09:44:42.602Z,0.11
2023-01-15T09:47:13.234Z,0.19
2023-01-15T09:49:58.066Z,0.17
2023-01-15T09:52:30.724Z,0.15
2023-01-15T09:55:03.228Z,0.25
2023-01-15T09:57:29.920Z,0.33
2023-01-15T09:59:56.517Z,0.48
2023-01-15T10:02:30.934Z,0.52
2023-01-15T10:04:59.817Z,0.48
2023-01-15T10:07:33.427Z,0.49
2023-01-15T10:10:06.514Z,0.45
2023-01-15T10:12:33.155Z,0.54
2023-01-15T10:15:05.000Z,0.57
2023-01-15T10:17:41.954Z,0.36
2023-01-15T10:20:37.901Z,0.36
2023-01-15T10:23:35.195Z,0.56
2023-01-15T10:26:30.340Z,0.61
2023-01-15T10:29:19.385Z,0.62
2023-01-15T10:31:52.767Z,0.77
2023-01-15T10:34:51.413Z,0.80
2023-01-15T10:37:26.387Z,0.66
2023-01-15T10:39:58.894Z,0.76
2023-01-15T10:42:56.360Z,0.74
2023-01-15T10:45:24.645Z,0.53
2023-01-15T10:47:58.012Z,0.47
2023-01-15T10:50:25.740Z,0.43
2023-01-15T10:52:59.770Z,0.32
2023-01-15T10:55:38.439Z,0.31
2023-01-15T10:58:23.556Z,0.56
2023-01-15T11:00:57.416Z,0.42
2023-01-15T11:03:31.713Z,0.43
2023-01-15T11:05:58.292Z,0.44
2023-01-15T11:09:06.375Z,0.38
2023-01-15T11:11:49.200Z,0.35
2023-01-15T11:14:15.790Z,0.53
2023-01-15T11:16:44.284Z,0.46
2023-01-15T11:19:28.377Z,0.32
2023-01-15T11:21:54.982Z,0.22
2023-01-15T11:24:21.568Z,0.27
2023-01-15T11:26:51.787Z,0.36
2023-01-15T11:29:31.015Z,0.28
2023-01-15T11:31:57.663Z,0.30
2023-01-15T11:34:24.331Z,0.47
2023-01-15T11:37:04.478Z,0.43
2023-01-15T11:39:31.173Z,0.31
2023-01-15T11:42:05.387Z,0.37
2023-01-15T11:44:31.985Z,0.38
2023-01-15T11:46:58.595Z,0.43
2023-01-15T11:49:25.232Z,0.27
2023-01-15T11:51:51.889Z,0.26
2023-01-15T11:54:18.683Z,0.38
2023-01-15T11:56:45.726Z,0.35
2023-01-15T11:59:13.678Z,0.35
2023-01-15T12:01:53.341Z,0.42
2023-01-15T12:04:26.110Z,0.45
2023-01-15T12:06:53.997Z,0.52
2023-01-15T12:09:48.293Z,0.48
2023-01-15T12:12:46.418Z,0.53
2023-01-15T12:15:25.228Z,0.54
2023-01-15T12:18:25.386Z,0.41
2023-01-15T12:21:04.647Z,0.44
2023-01-15T12:24:12.632Z,0.96
2023-01-15T12:26:51.029Z,0.50
2023-01-15T12:29:34.158Z,0.28
2023-01-15T12:32:08.810Z,0.31
2023-01-15T12:34:55.886Z,0.74
2023-01-15T12:37:28.097Z,0.24
2023-01-15T12:40:17.288Z,0.26
2023-01-15T12:42:44.692Z,0.29
2023-01-15T12:45:15.035Z,0.96
2023-01-15T12:47:57.454Z,0.60
2023-01-15T12:50:39.215Z,0.51
2023-01-15T12:53:22.107Z,0.35
2023-01-15T12:56:05.903Z,0.38
2023-01-15T12:58:54.279Z,0.53
2023-01-15T13:01:46.924Z,0.51
2023-01-15T13:04:32.559Z,0.72
2023-01-15T13:07:09.168Z,0.62
2023-01-15T13:09:43.217Z,0.54
2023-01-15T13:12:13.921Z,0.49
2023-01-15T13:14:41.170Z,0.45
2023-01-15T13:17:25.002Z,0.55
2023-01-15T13:20:11.845Z,0.30
2023-01-15T13:22:45.480Z,0.57
2023-01-15T13:25:34.417Z,0.42
2023-01-15T13:28:13.228Z,0.50
2023-01-15T13:31:11.994Z,0.44
2023-01-15T13:33:44.621Z,0.37
2023-01-15T13:36:18.713Z,0.25
2023-01-15T13:38:46.872Z,0.27
2023-01-15T13:41:20.667Z,0.35
2023-01-15T13:43:47.332Z,0.31
2023-01-15T13:46:19.098Z,0.47
2023-01-15T13:48:47.031Z,0.41
2023-01-15T13:51:31.220Z,0.78
2023-01-15T13:53:58.410Z,0.45
2023-01-15T13:56:27.655Z,0.40
2023-01-15T13:59:18.157Z,0.37
2023-01-15T14:01:44.923Z,0.38
2023-01-15T14:04:14.587Z,0.32
2023-01-15T14:06:48.223Z,0.39
2023-01-15T14:09:27.332Z,0.49
2023-01-15T14:12:16.819Z,0.52
2023-01-15T14:15:13.205Z,0.49
2023-01-15T14:18:07.215Z,0.65
2023-01-15T14:20:55.216Z,0.61
2023-01-15T14:23:39.961Z,0.99
2023-01-15T14:26:50.248Z,0.98
2023-01-15T14:29:35.150Z,0.92
2023-01-15T14:32:36.067Z,1.09
2023-01-15T14:35:02.706Z,0.45
2023-01-15T14:37:53.462Z,0.49
2023-01-15T14:40:29.376Z,0.54
2023-01-15T14:42:56.664Z,0.47
2023-01-15T14:45:34.390Z,0.51
2023-01-15T14:48:04.033Z,0.45
2023-01-15T14:50:38.093Z,0.57
2023-01-15T14:53:13.725Z,0.55
2023-01-15T14:55:43.258Z,0.65
2023-01-15T14:58:31.507Z,0.62
2023-01-15T15:01:00.504Z,0.65
2023-01-15T15:03:37.393Z,0.63
2023-01-15T15:06:05.714Z,0.63
2023-01-15T15:08:32.985Z,0.68
2023-01-15T15:10:59.603Z,0.72
2023-01-15T15:13:36.167Z,0.76
2023-01-15T15:16:08.250Z,0.67
2023-01-15T15:18:39.105Z,0.66
2023-01-15T15:21:08.614Z,0.56
2023-01-15T15:23:47.302Z,0.63
2023-01-15T15:26:26.510Z,0.63
2023-01-15T15:29:17.989Z,0.48
2023-01-15T15:31:48.069Z,0.54
2023-01-15T15:34:31.004Z,0.51
2023-01-15T15:37:00.480Z,0.51
2023-01-15T15:39:46.805Z,0.60
2023-01-15T15:42:34.068Z,0.64
2023-01-15T15:45:00.749Z,0.74
2023-01-15T15:47:27.423Z,0.59
2023-01-15T15:49:54.044Z,0.60
2023-01-15T15:52:23.508Z,0.73
2023-01-15T15:55:02.137Z,1.35
2023-01-15T15:57:29.442Z,1.88
2023-01-15T15:59:56.071Z,1.43
2023-01-15T16:02:38.121Z,1.18
2023-01-15T16:05:28.311Z,0.97
2023-01-15T16:07:55.158Z,0.82
2023-01-15T16:10:34.128Z,0.65
2023-01-15T16:13:03.215Z,0.87
2023-01-15T16:15:40.302Z,0.82
2023-01-15T16:18:06.968Z,0.62
2023-01-15T16:20:33.865Z,0.83
2023-01-15T16:23:01.853Z,0.76
2023-01-15T16:26:14.825Z,0.68
2023-01-15T16:28:44.215Z,0.80
2023-01-15T16:31:11.348Z,0.92
2023-01-15T16:33:38.160Z,0.81
2023-01-15T16:36:05.025Z,0.73
2023-01-15T16:38:36.936Z,0.76
2023-01-15T16:41:04.170Z,1.00
2023-01-15T16:43:30.837Z,1.04
2023-01-15T16:46:16.984Z,0.96
2023-01-15T16:48:43.642Z,1.23
2023-01-15T16:51:35.585Z,0.96
2023-01-15T16:54:05.224Z,0.96
2023-01-15T16:56:37.614Z,0.78
2023-01-15T16:59:04.933Z,1.10
2023-01-15T17:01:45.392Z,1.60
2023-01-15T17:04:22.537Z,1.21
2023-01-15T17:07:00.541Z,0.97
2023-01-15T17:09:29.207Z,1.19
2023-01-15T17:11:55.872Z,1.67
2023-01-15T17:14:24.590Z,2.11
2023-01-15T17:17:16.588Z,1.30
2023-01-15T17:19:43.229Z,1.16
2023-01-15T17:22:20.669Z,1.29
2023-01-15T17:24:48.739Z,1.40
2023-01-15T17:27:16.262Z,1.41
2023-01-15T17:29:43.071Z,1.45
2023-01-15T17:32:22.414Z,1.83
2023-01-15T17:34:49.024Z,2.33
2023-01-15T17:37:15.740Z,2.00
2023-01-15T17:39:42.492Z,2.03
2023-01-15T17:42:16.589Z,2.33
2023-01-15T17:44:43.526Z,1.80
2023-01-15T17:47:10.285Z,1.68
2023-01-15T17:49:37.063Z,1.47
2023-01-15T17:52:04.965Z,1.58
2023-01-15T17:54:31.689Z,1.74
2023-01-15T17:56:58.307Z,1.73
2023-01-15T17:59:25.006Z,1.56
2023-01-15T18:01:51.908Z,1.76
2023-01-15T18:04:35.805Z,1.60
2023-01-15T18:07:02.435Z,1.66
2023-01-15T18:09:29.047Z,1.80
2023-01-15T18:11:55.704Z,1.74
2023-01-15T18:14:22.388Z,1.74
2023-01-15T18:16:49.004Z,1.80
2023-01-15T18:19:15.694Z,1.70
2023-01-15T18:21:42.289Z,1.58
2023-01-15T18:24:09.278Z,1.94
2023-01-15T18:26:37.069Z,1.59
2023-01-15T18:29:04.657Z,1.42
2023-01-15T18:31:31.549Z,2.00
2023-01-15T18:33:58.164Z,1.65
2023-01-15T18:36:24.758Z,1.59
2023-01-15T18:38:51.367Z,1.78
2023-01-15T18:41:19.671Z,1.38
2023-01-15T18:43:46.287Z,1.47
2023-01-15T18:46:12.890Z,1.55
2023-01-15T18:48:40.782Z,1.76
2023-01-15T18:51:08.631Z,1.51
2023-01-15T18:53:35.270Z,1.57
2023-01-15T18:56:05.407Z,1.65
2023-01-15T18:58:32.102Z,1.69
2023-01-15T19:00:58.931Z,1.81
2023-01-15T19:03:25.770Z,1.63
2023-01-15T19:05:52.411Z,1.79
2023-01-15T19:08:19.114Z,2.12
2023-01-15T19:10:45.750Z,2.35
2023-01-15T19:13:12.488Z,2.53
2023-01-15T19:15:41.636Z,2.35
2023-01-15T19:18:09.656Z,2.41
2023-01-15T19:20:37.821Z,2.87
2023-01-15T19:23:05.984Z,2.84
2023-01-15T19:25:36.507Z,2.87
2023-01-15T19:28:03.106Z,2.84
2023-01-15T19:30:29.724Z,3.17
2023-01-15T19:32:56.509Z,3.25
2023-01-15T19:35:23.119Z,3.27
2023-01-15T19:37:49.767Z,3.39
2023-01-15T19:40:16.802Z,3.52
2023-01-15T19:42:43.456Z,3.53
2023-01-15T19:45:10.389Z,3.75
2023-01-15T19:47:38.454Z,4.82
2023-01-15T19:50:10.137Z,4.19
2023-01-15T19:52:36.763Z,3.99
2023-01-15T19:55:04.595Z,3.81
2023-01-15T19:57:31.231Z,3.79
2023-01-15T19:59:57.932Z,3.75
2023-01-15T20:02:24.580Z,3.69
2023-01-15T20:04:51.384Z,3.81
2023-01-15T20:07:18.020Z,3.72
2023-01-15T20:09:44.778Z,3.74
2023-01-15T20:12:11.565Z,4.92
2023-01-15T20:14:38.202Z,4.70
2023-01-15T20:17:04.879Z,4.21
2023-01-15T20:19:31.585Z,4.02
2023-01-15T20:21:58.241Z,3.96
2023-01-15T20:24:24.854Z,3.66
2023-01-15T20:26:51.439Z,3.62
2023-01-15T20:29:18.037Z,4.05
2023-01-15T20:31:44.759Z,4.44
2023-01-15T20:34:11.355Z,3.95
2023-01-15T20:36:38.033Z,3.82
2023-01-15T20:39:04.705Z,3.45
2023-01-15T20:41:31.336Z,3.86
2023-01-15T20:43:58.033Z,3.43
2023-01-15T20:46:24.631Z,2.87
2023-01-15T20:48:51.372Z,3.15
2023-01-15T20:51:17.984Z,3.27
2023-01-15T20:53:44.768Z,3.46
2023-01-15T20:56:13.379Z,3.56
2023-01-15T20:58:40.637Z,3.03
2023-01-15T21:01:07.668Z,3.05
2023-01-15T21:03:34.952Z,3.12
2023-01-15T21:06:03.857Z,2.74
2023-01-15T21:08:31.677Z,3.01
2023-01-15T21:10:58.291Z,2.95
2023-01-15T21:13:24.965Z,3.00
2023-01-15T21:15:55.308Z,3.01
2023-01-15T21:18:21.969Z,3.15
2023-01-15T21:20:48.564Z,2.96
2023-01-15T21:23:15.150Z,3.05
2023-01-15T21:25:41.791Z,3.50
2023-01-15T21:28:08.538Z,6.29
2023-01-15T21:30:35.147Z,3.37
2023-01-15T21:33:01.783Z,2.96
2023-01-15T21:35:28.451Z,3.02
2023-01-15T21:37:55.134Z,3.02
2023-01-15T21:40:21.753Z,3.27
2023-01-15T21:42:48.399Z,2.81
2023-01-15T21:45:15.042Z,2.98
2023-01-15T21:47:41.715Z,2.85
2023-01-15T21:50:09.015Z,2.80
2023-01-15T21:52:35.655Z,2.86
2023-01-15T21:55:02.318Z,2.79
2023-01-15T21:57:29.756Z,3.01
2023-01-15T21:59:56.416Z,2.96
2023-01-15T22:02:23.078Z,2.78
2023-01-15T22:04:49.791Z,3.16
2023-01-15T22:07:17.309Z,3.36
2023-01-15T22:09:43.936Z,3.13
2023-01-15T22:12:10.573Z,2.86
2023-01-15T22:14:37.168Z,3.07
2023-01-15T22:17:06.285Z,3.02
2023-01-15T22:19:33.065Z,3.07
2023-01-15T22:22:04.485Z,3.00
2023-01-15T22:24:32.915Z,3.06
2023-01-15T22:27:00.057Z,3.05
2023-01-15T22:29:30.595Z,3.21
2023-01-15T22:31:57.891Z,3.21
2023-01-15T22:34:25.449Z,3.10
2023-01-15T22:36:52.197Z,3.35
2023-01-15T22:39:18.980Z,3.11
2023-01-15T22:41:45.803Z,2.85
2023-01-15T22:44:12.405Z,2.88
2023-01-15T22:46:39.041Z,2.90
2023-01-15T22:49:05.679Z,2.98
2023-01-15T22:51:32.325Z,2.76
2023-01-15T22:53:59.014Z,3.10
2023-01-15T22:56:25.675Z,2.75
2023-01-15T22:58:55.590Z,2.96
2023-01-15T23:01:23.303Z,2.95
2023-01-15T23:03:50.029Z,3.08
2023-01-15T23:06:16.664Z,2.92
2023-01-15T23:08:43.295Z,3.62
2023-01-15T23:11:14.532Z,4.03
2023-01-15T23:13:41.207Z,4.32
2023-01-15T23:16:08.194Z,4.35
2023-01-15T23:18:34.933Z,4.39
2023-01-15T23:21:15.175Z,4.04
2023-01-15T23:23:41.869Z,3.97
2023-01-15T23:26:10.320Z,4.02
2023-01-15T23:28:36.925Z,3.96
2023-01-15T23:31:03.620Z,4.11
2023-01-15T23:33:30.305Z,4.07
2023-01-15T23:35:56.973Z,4.16
2023-01-15T23:38:23.616Z,3.72
2023-01-15T23:40:50.273Z,3.57
2023-01-15T23:43:17.053Z,3.90
2023-01-15T23:45:43.716Z,3.56
2023-01-15T23:48:10.349Z,3.94
2023-01-15T23:50:36.995Z,3.59
2023-01-15T23:53:03.647Z,3.40
2023-01-15T23:55:30.430Z,3.53
2023-01-15T23:57:57.354Z,3.57
